sensor_id;sensor_type;location;lat;lon;timestamp;P1;durP1;ratioP1;P2;durP2;ratioP2
26337;SDS011;14050;50.950;4.460;2023-05-10T00:02:26;15.60;;;8.17;;
26337;SDS011;14050;50.950;4.460;2023-05-10T00:07:26;19.67;;;8.10;;
26337;SDS011;14050;50.950;4.460;2023-05-10T00:12:27;19.70;;;8.27;;
26337;SDS011;14050;50.950;4.460;2023-05-10T00:17:27;20.35;;;8.57;;
26337;SDS011;14050;50.950;4.460;2023-05-10T00:22:28;21.63;;;9.93;;
26337;SDS011;14050;50.950;4.460;2023-05-10T00:27:29;23.13;;;9.75;;
26337;SDS011;14050;50.950;4.460;2023-05-10T00:32:29;27.23;;;10.97;;
26337;SDS011;14050;50.950;4.460;2023-05-10T00:37:29;24.90;;;12.23;;
26337;SDS011;14050;50.950;4.460;2023-05-10T00:42:30;23.67;;;11.32;;
26337;SDS011;14050;50.950;4.460;2023-05-10T00:47:31;23.58;;;12.32;;
26337;SDS011;14050;50.950;4.460;2023-05-10T00:52:31;26.77;;;11.80;;
26337;SDS011;14050;50.950;4.460;2023-05-10T00:57:32;24.55;;;12.98;;
26337;SDS011;14050;50.950;4.460;2023-05-10T01:02:33;24.13;;;12.57;;
26337;SDS011;14050;50.950;4.460;2023-05-10T01:07:33;23.00;;;12.85;;
26337;SDS011;14050;50.950;4.460;2023-05-10T01:12:37;24.07;;;12.60;;
26337;SDS011;14050;50.950;4.460;2023-05-10T01:17:40;23.17;;;12.82;;
26337;SDS011;14050;50.950;4.460;2023-05-10T01:28:00;29.95;;;13.38;;
26337;SDS011;14050;50.950;4.460;2023-05-10T01:38:16;27.48;;;13.98;;
26337;SDS011;14050;50.950;4.460;2023-05-10T01:43:19;26.88;;;13.68;;
26337;SDS011;14050;50.950;4.460;2023-05-10T01:48:21;22.75;;;13.77;;
26337;SDS011;14050;50.950;4.460;2023-05-10T01:53:23;25.90;;;15.35;;
26337;SDS011;14050;50.950;4.460;2023-05-10T01:58:29;26.80;;;15.45;;
26337;SDS011;14050;50.950;4.460;2023-05-10T02:03:30;25.05;;;14.88;;
26337;SDS011;14050;50.950;4.460;2023-05-10T02:08:32;26.10;;;15.70;;
26337;SDS011;14050;50.950;4.460;2023-05-10T02:13:33;26.35;;;16.33;;
26337;SDS011;14050;50.950;4.460;2023-05-10T02:18:36;26.45;;;15.30;;
26337;SDS011;14050;50.950;4.460;2023-05-10T02:23:36;26.90;;;15.95;;
26337;SDS011;14050;50.950;4.460;2023-05-10T02:28:37;25.70;;;15.52;;
26337;SDS011;14050;50.950;4.460;2023-05-10T02:33:38;27.30;;;16.98;;
26337;SDS011;14050;50.950;4.460;2023-05-10T02:38:40;34.50;;;17.25;;
26337;SDS011;14050;50.950;4.460;2023-05-10T02:43:41;29.77;;;17.73;;
26337;SDS011;14050;50.950;4.460;2023-05-10T02:48:42;36.28;;;19.80;;
26337;SDS011;14050;50.950;4.460;2023-05-10T02:53:43;33.45;;;17.92;;
26337;SDS011;14050;50.950;4.460;2023-05-10T02:58:44;34.20;;;17.67;;
26337;SDS011;14050;50.950;4.460;2023-05-10T03:03:44;28.27;;;17.40;;
26337;SDS011;14050;50.950;4.460;2023-05-10T03:08:45;32.65;;;17.80;;
26337;SDS011;14050;50.950;4.460;2023-05-10T03:14:23;32.08;;;18.27;;
26337;SDS011;14050;50.950;4.460;2023-05-10T03:24:20;28.70;;;17.48;;
26337;SDS011;14050;50.950;4.460;2023-05-10T03:29:21;32.95;;;18.60;;
26337;SDS011;14050;50.950;4.460;2023-05-10T03:34:25;32.72;;;20.15;;
26337;SDS011;14050;50.950;4.460;2023-05-10T03:39:25;37.60;;;20.58;;
26337;SDS011;14050;50.950;4.460;2023-05-10T03:44:26;39.65;;;21.90;;
26337;SDS011;14050;50.950;4.460;2023-05-10T03:49:26;36.40;;;21.80;;
26337;SDS011;14050;50.950;4.460;2023-05-10T03:54:26;39.65;;;23.85;;
26337;SDS011;14050;50.950;4.460;2023-05-10T03:59:27;38.58;;;23.77;;
26337;SDS011;14050;50.950;4.460;2023-05-10T04:04:27;46.90;;;25.50;;
26337;SDS011;14050;50.950;4.460;2023-05-10T04:09:27;37.67;;;23.60;;
26337;SDS011;14050;50.950;4.460;2023-05-10T04:14:28;38.33;;;25.30;;
26337;SDS011;14050;50.950;4.460;2023-05-10T04:19:29;40.55;;;26.42;;
26337;SDS011;14050;50.950;4.460;2023-05-10T04:24:29;42.05;;;26.65;;
26337;SDS011;14050;50.950;4.460;2023-05-10T04:29:30;51.13;;;28.48;;
26337;SDS011;14050;50.950;4.460;2023-05-10T04:34:30;43.63;;;27.83;;
26337;SDS011;14050;50.950;4.460;2023-05-10T04:39:31;45.20;;;28.25;;
26337;SDS011;14050;50.950;4.460;2023-05-10T04:44:32;51.65;;;29.42;;
26337;SDS011;14050;50.950;4.460;2023-05-10T04:49:33;50.75;;;30.02;;
26337;SDS011;14050;50.950;4.460;2023-05-10T04:54:33;46.95;;;28.02;;
26337;SDS011;14050;50.950;4.460;2023-05-10T04:59:35;45.30;;;28.13;;
26337;SDS011;14050;50.950;4.460;2023-05-10T05:04:36;44.33;;;26.48;;
26337;SDS011;14050;50.950;4.460;2023-05-10T05:09:36;45.67;;;29.15;;
26337;SDS011;14050;50.950;4.460;2023-05-10T05:14:37;45.53;;;27.45;;
26337;SDS011;14050;50.950;4.460;2023-05-10T05:19:37;44.22;;;26.83;;
26337;SDS011;14050;50.950;4.460;2023-05-10T05:24:38;43.17;;;26.70;;
26337;SDS011;14050;50.950;4.460;2023-05-10T05:29:38;42.65;;;26.80;;
26337;SDS011;14050;50.950;4.460;2023-05-10T05:34:39;37.28;;;25.30;;
26337;SDS011;14050;50.950;4.460;2023-05-10T05:39:39;39.83;;;25.20;;
26337;SDS011;14050;50.950;4.460;2023-05-10T05:44:40;43.08;;;25.52;;
26337;SDS011;14050;50.950;4.460;2023-05-10T05:49:40;42.92;;;25.50;;
26337;SDS011;14050;50.950;4.460;2023-05-10T05:54:44;38.53;;;24.88;;
26337;SDS011;14050;50.950;4.460;2023-05-10T05:59:47;36.15;;;24.33;;
26337;SDS011;14050;50.950;4.460;2023-05-10T06:04:48;37.30;;;25.33;;
26337;SDS011;14050;50.950;4.460;2023-05-10T06:09:48;38.33;;;25.50;;
26337;SDS011;14050;50.950;4.460;2023-05-10T06:14:49;39.43;;;24.90;;
26337;SDS011;14050;50.950;4.460;2023-05-10T06:19:49;36.03;;;24.30;;
26337;SDS011;14050;50.950;4.460;2023-05-10T06:24:50;37.97;;;24.92;;
26337;SDS011;14050;50.950;4.460;2023-05-10T06:29:50;31.92;;;22.83;;
26337;SDS011;14050;50.950;4.460;2023-05-10T06:34:51;35.35;;;23.35;;
26337;SDS011;14050;50.950;4.460;2023-05-10T06:39:52;33.50;;;24.05;;
26337;SDS011;14050;50.950;4.460;2023-05-10T06:44:52;41.75;;;26.90;;
26337;SDS011;14050;50.950;4.460;2023-05-10T06:49:53;40.95;;;26.25;;
26337;SDS011;14050;50.950;4.460;2023-05-10T06:54:53;40.60;;;26.23;;
26337;SDS011;14050;50.950;4.460;2023-05-10T06:59:54;40.97;;;26.33;;
26337;SDS011;14050;50.950;4.460;2023-05-10T07:04:56;41.40;;;24.95;;
26337;SDS011;14050;50.950;4.460;2023-05-10T07:09:56;43.45;;;26.23;;
26337;SDS011;14050;50.950;4.460;2023-05-10T07:14:57;48.55;;;26.20;;
26337;SDS011;14050;50.950;4.460;2023-05-10T07:19:58;48.70;;;27.25;;
26337;SDS011;14050;50.950;4.460;2023-05-10T07:24:58;46.83;;;27.65;;
26337;SDS011;14050;50.950;4.460;2023-05-10T07:29:59;49.83;;;26.08;;
26337;SDS011;14050;50.950;4.460;2023-05-10T07:35:00;60.45;;;28.35;;
26337;SDS011;14050;50.950;4.460;2023-05-10T07:40:01;45.92;;;26.60;;
26337;SDS011;14050;50.950;4.460;2023-05-10T07:45:02;44.13;;;25.60;;
26337;SDS011;14050;50.950;4.460;2023-05-10T07:50:02;42.45;;;25.35;;
26337;SDS011;14050;50.950;4.460;2023-05-10T07:55:03;47.42;;;25.08;;
26337;SDS011;14050;50.950;4.460;2023-05-10T08:00:04;40.30;;;23.95;;
26337;SDS011;14050;50.950;4.460;2023-05-10T08:05:05;46.88;;;24.67;;
26337;SDS011;14050;50.950;4.460;2023-05-10T08:10:06;44.40;;;22.77;;
26337;SDS011;14050;50.950;4.460;2023-05-10T08:15:06;43.90;;;22.27;;
26337;SDS011;14050;50.950;4.460;2023-05-10T08:20:08;34.88;;;18.33;;
26337;SDS011;14050;50.950;4.460;2023-05-10T08:25:09;38.30;;;19.08;;
26337;SDS011;14050;50.950;4.460;2023-05-10T08:30:10;34.88;;;18.27;;
26337;SDS011;14050;50.950;4.460;2023-05-10T08:35:10;32.50;;;16.88;;
26337;SDS011;14050;50.950;4.460;2023-05-10T08:40:11;27.70;;;14.05;;
26337;SDS011;14050;50.950;4.460;2023-05-10T08:45:12;30.65;;;14.68;;
26337;SDS011;14050;50.950;4.460;2023-05-10T08:50:12;32.83;;;14.52;;
26337;SDS011;14050;50.950;4.460;2023-05-10T08:55:15;29.42;;;14.32;;
26337;SDS011;14050;50.950;4.460;2023-05-10T09:00:16;22.88;;;13.35;;
26337;SDS011;14050;50.950;4.460;2023-05-10T09:05:20;24.45;;;13.20;;
26337;SDS011;14050;50.950;4.460;2023-05-10T09:10:21;17.83;;;11.98;;
26337;SDS011;14050;50.950;4.460;2023-05-10T09:15:21;22.88;;;11.80;;
26337;SDS011;14050;50.950;4.460;2023-05-10T09:20:22;21.02;;;12.18;;
26337;SDS011;14050;50.950;4.460;2023-05-10T09:25:22;20.38;;;11.45;;
26337;SDS011;14050;50.950;4.460;2023-05-10T09:30:23;18.75;;;11.50;;
26337;SDS011;14050;50.950;4.460;2023-05-10T09:35:25;23.55;;;12.57;;
26337;SDS011;14050;50.950;4.460;2023-05-10T09:40:27;18.40;;;10.98;;
26337;SDS011;14050;50.950;4.460;2023-05-10T09:45:28;18.98;;;11.85;;
26337;SDS011;14050;50.950;4.460;2023-05-10T09:50:29;22.08;;;11.40;;
26337;SDS011;14050;50.950;4.460;2023-05-10T10:00:37;14.52;;;10.32;;
26337;SDS011;14050;50.950;4.460;2023-05-10T10:05:38;16.83;;;10.70;;
26337;SDS011;14050;50.950;4.460;2023-05-10T10:10:40;15.30;;;10.30;;
26337;SDS011;14050;50.950;4.460;2023-05-10T10:15:40;14.32;;;10.75;;
26337;SDS011;14050;50.950;4.460;2023-05-10T10:20:42;13.45;;;9.70;;
26337;SDS011;14050;50.950;4.460;2023-05-10T10:25:42;14.43;;;9.70;;
26337;SDS011;14050;50.950;4.460;2023-05-10T10:30:46;14.25;;;9.80;;
26337;SDS011;14050;50.950;4.460;2023-05-10T10:35:47;13.27;;;8.90;;
26337;SDS011;14050;50.950;4.460;2023-05-10T10:40:47;13.52;;;8.15;;
26337;SDS011;14050;50.950;4.460;2023-05-10T10:46:33;10.93;;;8.63;;
26337;SDS011;14050;50.950;4.460;2023-05-10T10:51:09;12.60;;;8.35;;
26337;SDS011;14050;50.950;4.460;2023-05-10T10:56:10;13.40;;;8.77;;
26337;SDS011;14050;50.950;4.460;2023-05-10T11:01:18;14.95;;;7.63;;
26337;SDS011;14050;50.950;4.460;2023-05-10T11:06:24;15.63;;;8.40;;
26337;SDS011;14050;50.950;4.460;2023-05-10T11:11:28;12.65;;;8.30;;
26337;SDS011;14050;50.950;4.460;2023-05-10T11:16:28;10.83;;;7.40;;
26337;SDS011;14050;50.950;4.460;2023-05-10T11:26:50;12.90;;;9.05;;
26337;SDS011;14050;50.950;4.460;2023-05-10T11:31:52;11.02;;;8.70;;
26337;SDS011;14050;50.950;4.460;2023-05-10T11:36:53;15.60;;;9.07;;
26337;SDS011;14050;50.950;4.460;2023-05-10T11:41:57;12.77;;;8.27;;
26337;SDS011;14050;50.950;4.460;2023-05-10T11:46:58;12.55;;;8.10;;
26337;SDS011;14050;50.950;4.460;2023-05-10T11:52:08;9.98;;;7.43;;
26337;SDS011;14050;50.950;4.460;2023-05-10T11:57:09;10.27;;;6.75;;
26337;SDS011;14050;50.950;4.460;2023-05-10T12:02:10;10.43;;;6.40;;
26337;SDS011;14050;50.950;4.460;2023-05-10T12:07:10;10.73;;;6.63;;
26337;SDS011;14050;50.950;4.460;2023-05-10T12:12:17;10.63;;;7.25;;
26337;SDS011;14050;50.950;4.460;2023-05-10T12:17:19;12.73;;;7.25;;
26337;SDS011;14050;50.950;4.460;2023-05-10T12:22:20;12.05;;;7.78;;
26337;SDS011;14050;50.950;4.460;2023-05-10T12:27:21;13.45;;;8.38;;
26337;SDS011;14050;50.950;4.460;2023-05-10T12:32:21;9.30;;;7.63;;
26337;SDS011;14050;50.950;4.460;2023-05-10T12:37:37;11.85;;;8.18;;
26337;SDS011;14050;50.950;4.460;2023-05-10T12:42:39;10.18;;;6.65;;
26337;SDS011;14050;50.950;4.460;2023-05-10T12:47:40;12.30;;;8.10;;
26337;SDS011;14050;50.950;4.460;2023-05-10T12:52:40;10.30;;;7.43;;
26337;SDS011;14050;50.950;4.460;2023-05-10T12:57:41;10.85;;;7.28;;
26337;SDS011;14050;50.950;4.460;2023-05-10T13:02:42;9.48;;;6.57;;
26337;SDS011;14050;50.950;4.460;2023-05-10T13:07:43;10.85;;;7.05;;
26337;SDS011;14050;50.950;4.460;2023-05-10T13:12:44;11.10;;;7.07;;
26337;SDS011;14050;50.950;4.460;2023-05-10T13:17:44;8.70;;;6.10;;
26337;SDS011;14050;50.950;4.460;2023-05-10T13:22:45;7.88;;;5.93;;
26337;SDS011;14050;50.950;4.460;2023-05-10T13:27:46;9.05;;;6.75;;
26337;SDS011;14050;50.950;4.460;2023-05-10T13:32:46;9.52;;;6.20;;
26337;SDS011;14050;50.950;4.460;2023-05-10T13:37:48;12.00;;;6.53;;
26337;SDS011;14050;50.950;4.460;2023-05-10T13:42:49;9.48;;;5.43;;
26337;SDS011;14050;50.950;4.460;2023-05-10T13:47:49;9.63;;;6.32;;
26337;SDS011;14050;50.950;4.460;2023-05-10T13:52:49;13.02;;;7.88;;
26337;SDS011;14050;50.950;4.460;2023-05-10T13:57:50;12.13;;;7.78;;
26337;SDS011;14050;50.950;4.460;2023-05-10T14:02:50;14.18;;;8.65;;
26337;SDS011;14050;50.950;4.460;2023-05-10T14:07:51;16.77;;;8.35;;
26337;SDS011;14050;50.950;4.460;2023-05-10T14:12:51;16.80;;;10.50;;
26337;SDS011;14050;50.950;4.460;2023-05-10T14:17:52;17.53;;;9.70;;
26337;SDS011;14050;50.950;4.460;2023-05-10T14:22:52;20.50;;;12.50;;
26337;SDS011;14050;50.950;4.460;2023-05-10T14:27:53;19.35;;;13.77;;
26337;SDS011;14050;50.950;4.460;2023-05-10T14:32:54;19.45;;;14.35;;
26337;SDS011;14050;50.950;4.460;2023-05-10T14:38:02;25.58;;;14.20;;
26337;SDS011;14050;50.950;4.460;2023-05-10T14:48:05;26.90;;;15.77;;
26337;SDS011;14050;50.950;4.460;2023-05-10T14:53:05;27.02;;;15.50;;
26337;SDS011;14050;50.950;4.460;2023-05-10T14:58:05;21.05;;;15.35;;
26337;SDS011;14050;50.950;4.460;2023-05-10T15:03:06;22.67;;;14.93;;
26337;SDS011;14050;50.950;4.460;2023-05-10T15:08:06;20.10;;;13.30;;
26337;SDS011;14050;50.950;4.460;2023-05-10T15:13:07;20.95;;;12.52;;
26337;SDS011;14050;50.950;4.460;2023-05-10T15:18:10;24.97;;;13.90;;
26337;SDS011;14050;50.950;4.460;2023-05-10T15:23:10;18.13;;;10.93;;
26337;SDS011;14050;50.950;4.460;2023-05-10T15:28:11;17.63;;;7.88;;
26337;SDS011;14050;50.950;4.460;2023-05-10T15:33:11;12.77;;;7.07;;
26337;SDS011;14050;50.950;4.460;2023-05-10T15:38:12;16.45;;;6.55;;
26337;SDS011;14050;50.950;4.460;2023-05-10T15:43:13;15.40;;;6.78;;
26337;SDS011;14050;50.950;4.460;2023-05-10T15:48:14;17.65;;;8.20;;
26337;SDS011;14050;50.950;4.460;2023-05-10T15:53:16;17.70;;;7.63;;
26337;SDS011;14050;50.950;4.460;2023-05-10T15:58:17;17.77;;;7.22;;
26337;SDS011;14050;50.950;4.460;2023-05-10T16:03:19;15.43;;;7.50;;
26337;SDS011;14050;50.950;4.460;2023-05-10T16:08:19;18.55;;;7.68;;
26337;SDS011;14050;50.950;4.460;2023-05-10T16:13:20;22.10;;;6.85;;
26337;SDS011;14050;50.950;4.460;2023-05-10T16:18:20;18.27;;;8.35;;
26337;SDS011;14050;50.950;4.460;2023-05-10T16:23:21;17.10;;;8.30;;
26337;SDS011;14050;50.950;4.460;2023-05-10T16:28:22;19.83;;;9.68;;
26337;SDS011;14050;50.950;4.460;2023-05-10T16:33:22;18.90;;;8.95;;
26337;SDS011;14050;50.950;4.460;2023-05-10T16:38:23;22.70;;;11.15;;
26337;SDS011;14050;50.950;4.460;2023-05-10T16:43:23;19.80;;;12.27;;
26337;SDS011;14050;50.950;4.460;2023-05-10T16:48:24;20.45;;;11.93;;
26337;SDS011;14050;50.950;4.460;2023-05-10T16:53:25;20.65;;;13.15;;
26337;SDS011;14050;50.950;4.460;2023-05-10T16:58:27;26.58;;;14.60;;
26337;SDS011;14050;50.950;4.460;2023-05-10T17:03:28;26.08;;;13.40;;
26337;SDS011;14050;50.950;4.460;2023-05-10T17:08:29;25.33;;;12.60;;
26337;SDS011;14050;50.950;4.460;2023-05-10T17:13:29;25.83;;;12.10;;
26337;SDS011;14050;50.950;4.460;2023-05-10T17:18:30;24.88;;;12.35;;
26337;SDS011;14050;50.950;4.460;2023-05-10T17:23:30;19.65;;;9.88;;
26337;SDS011;14050;50.950;4.460;2023-05-10T17:28:31;19.38;;;9.73;;
26337;SDS011;14050;50.950;4.460;2023-05-10T17:33:32;18.50;;;10.18;;
26337;SDS011;14050;50.950;4.460;2023-05-10T17:38:32;26.25;;;11.18;;
26337;SDS011;14050;50.950;4.460;2023-05-10T17:43:33;21.17;;;10.30;;
26337;SDS011;14050;50.950;4.460;2023-05-10T17:48:33;21.23;;;10.63;;
26337;SDS011;14050;50.950;4.460;2023-05-10T17:53:36;20.30;;;10.15;;
26337;SDS011;14050;50.950;4.460;2023-05-10T17:58:36;18.77;;;9.65;;
26337;SDS011;14050;50.950;4.460;2023-05-10T18:03:37;22.10;;;11.25;;
26337;SDS011;14050;50.950;4.460;2023-05-10T18:08:39;24.92;;;10.40;;
26337;SDS011;14050;50.950;4.460;2023-05-10T18:13:39;18.45;;;10.05;;
26337;SDS011;14050;50.950;4.460;2023-05-10T18:18:40;22.75;;;10.57;;
26337;SDS011;14050;50.950;4.460;2023-05-10T18:23:41;21.65;;;11.38;;
26337;SDS011;14050;50.950;4.460;2023-05-10T18:28:41;23.15;;;11.05;;
26337;SDS011;14050;50.950;4.460;2023-05-10T18:33:42;20.95;;;10.43;;
26337;SDS011;14050;50.950;4.460;2023-05-10T18:38:42;24.13;;;11.30;;
26337;SDS011;14050;50.950;4.460;2023-05-10T18:43:44;19.92;;;11.68;;
26337;SDS011;14050;50.950;4.460;2023-05-10T18:48:44;19.92;;;11.55;;
26337;SDS011;14050;50.950;4.460;2023-05-10T18:53:45;21.98;;;12.00;;
26337;SDS011;14050;50.950;4.460;2023-05-10T18:58:46;23.15;;;11.98;;
26337;SDS011;14050;50.950;4.460;2023-05-10T19:03:46;27.45;;;13.68;;
26337;SDS011;14050;50.950;4.460;2023-05-10T19:08:49;30.63;;;14.02;;
26337;SDS011;14050;50.950;4.460;2023-05-10T19:13:49;25.05;;;13.85;;
26337;SDS011;14050;50.950;4.460;2023-05-10T19:18:50;25.70;;;13.40;;
26337;SDS011;14050;50.950;4.460;2023-05-10T19:23:51;29.98;;;14.43;;
26337;SDS011;14050;50.950;4.460;2023-05-10T19:28:53;30.00;;;14.95;;
26337;SDS011;14050;50.950;4.460;2023-05-10T19:33:53;27.63;;;14.50;;
26337;SDS011;14050;50.950;4.460;2023-05-10T19:38:54;27.30;;;14.93;;
26337;SDS011;14050;50.950;4.460;2023-05-10T19:43:54;32.83;;;16.42;;
26337;SDS011;14050;50.950;4.460;2023-05-10T19:48:55;32.10;;;15.95;;
26337;SDS011;14050;50.950;4.460;2023-05-10T19:53:55;27.15;;;15.02;;
26337;SDS011;14050;50.950;4.460;2023-05-10T19:58:57;36.83;;;16.75;;
26337;SDS011;14050;50.950;4.460;2023-05-10T20:03:58;30.00;;;16.38;;
26337;SDS011;14050;50.950;4.460;2023-05-10T20:08:59;28.48;;;16.40;;
26337;SDS011;14050;50.950;4.460;2023-05-10T20:13:59;33.03;;;16.25;;
26337;SDS011;14050;50.950;4.460;2023-05-10T20:19:00;28.77;;;15.48;;
26337;SDS011;14050;50.950;4.460;2023-05-10T20:24:01;33.35;;;16.40;;
26337;SDS011;14050;50.950;4.460;2023-05-10T20:29:02;33.92;;;20.30;;
26337;SDS011;14050;50.950;4.460;2023-05-10T20:34:03;35.30;;;17.50;;
26337;SDS011;14050;50.950;4.460;2023-05-10T20:39:04;34.65;;;17.17;;
26337;SDS011;14050;50.950;4.460;2023-05-10T20:44:05;34.88;;;18.00;;
26337;SDS011;14050;50.950;4.460;2023-05-10T20:49:07;30.52;;;17.27;;
26337;SDS011;14050;50.950;4.460;2023-05-10T20:54:07;38.40;;;17.83;;
26337;SDS011;14050;50.950;4.460;2023-05-10T20:59:08;37.25;;;19.15;;
26337;SDS011;14050;50.950;4.460;2023-05-10T21:04:08;40.47;;;20.02;;
26337;SDS011;14050;50.950;4.460;2023-05-10T21:09:09;43.45;;;21.63;;
26337;SDS011;14050;50.950;4.460;2023-05-10T21:14:09;40.67;;;19.33;;
26337;SDS011;14050;50.950;4.460;2023-05-10T21:19:10;47.40;;;21.73;;
26337;SDS011;14050;50.950;4.460;2023-05-10T21:24:10;38.17;;;19.48;;
26337;SDS011;14050;50.950;4.460;2023-05-10T21:29:11;42.10;;;19.45;;
26337;SDS011;14050;50.950;4.460;2023-05-10T21:34:13;50.38;;;23.63;;
26337;SDS011;14050;50.950;4.460;2023-05-10T21:39:13;35.35;;;18.88;;
26337;SDS011;14050;50.950;4.460;2023-05-10T21:44:14;41.15;;;20.27;;
26337;SDS011;14050;50.950;4.460;2023-05-10T21:49:15;36.17;;;19.65;;
26337;SDS011;14050;50.950;4.460;2023-05-10T21:54:15;39.05;;;19.85;;
26337;SDS011;14050;50.950;4.460;2023-05-10T21:59:16;35.22;;;18.88;;
26337;SDS011;14050;50.950;4.460;2023-05-10T22:04:17;38.05;;;18.20;;
26337;SDS011;14050;50.950;4.460;2023-05-10T22:09:17;33.40;;;18.97;;
26337;SDS011;14050;50.950;4.460;2023-05-10T22:14:18;42.28;;;19.85;;
26337;SDS011;14050;50.950;4.460;2023-05-10T22:19:18;37.88;;;19.95;;
26337;SDS011;14050;50.950;4.460;2023-05-10T22:24:19;41.03;;;20.70;;
26337;SDS011;14050;50.950;4.460;2023-05-10T22:29:21;43.72;;;21.13;;
26337;SDS011;14050;50.950;4.460;2023-05-10T22:34:22;42.90;;;22.20;;
26337;SDS011;14050;50.950;4.460;2023-05-10T22:39:23;39.85;;;19.95;;
26337;SDS011;14050;50.950;4.460;2023-05-10T22:44:24;42.20;;;21.02;;
26337;SDS011;14050;50.950;4.460;2023-05-10T22:49:26;38.23;;;20.63;;
26337;SDS011;14050;50.950;4.460;2023-05-10T22:54:33;47.60;;;23.75;;
26337;SDS011;14050;50.950;4.460;2023-05-10T22:59:36;33.83;;;19.48;;
26337;SDS011;14050;50.950;4.460;2023-05-10T23:04:42;40.60;;;20.05;;
26337;SDS011;14050;50.950;4.460;2023-05-10T23:14:57;37.72;;;18.77;;
26337;SDS011;14050;50.950;4.460;2023-05-10T23:19:57;38.50;;;18.83;;
26337;SDS011;14050;50.950;4.460;2023-05-10T23:24:59;36.85;;;18.48;;
26337;SDS011;14050;50.950;4.460;2023-05-10T23:30:01;42.72;;;18.92;;
26337;SDS011;14050;50.950;4.460;2023-05-10T23:35:07;46.67;;;20.98;;
26337;SDS011;14050;50.950;4.460;2023-05-10T23:40:08;43.15;;;20.65;;
26337;SDS011;14050;50.950;4.460;2023-05-10T23:45:11;46.30;;;21.35;;
26337;SDS011;14050;50.950;4.460;2023-05-10T23:50:15;41.88;;;22.48;;
26337;SDS011;14050;50.950;4.460;2023-05-10T23:55:16;44.08;;;23.17;;
